Time;durP1;ratioP1;P1;durP2;ratioP2;P2;SDS_P1;SDS_P2;PMS_P1;PMS_P2;Temp;Humidity;BMP_temperature;BMP_pressure;BME280_temperature;BME280_humidity;BME280_pressure;Samples;Min_cycle;Max_cycle;Signal;HPM_P1;HPM_P2
2022/07/17 00:01:56;;;;;;;29.97;28.00;;;18.10;65.20;;;;;;4969325;28;20554;-67
2022/07/17 00:04:23;;;;;;;29.00;27.20;;;18.00;65.20;;;;;;4969765;28;20482;-68
2022/07/17 00:06:50;;;;;;;29.60;28.00;;;18.00;65.20;;;;;;4968982;28;20766;-68
2022/07/17 00:09:17;;;;;;;29.43;27.60;;;18.00;65.30;;;;;;4971440;28;20546;-68
2022/07/17 00:11:44;;;;;;;30.00;28.00;;;18.00;65.50;;;;;;4969013;28;20459;-68
2022/07/17 00:14:12;;;;;;;29.80;28.00;;;17.90;65.70;;;;;;4969903;28;20565;-69
2022/07/17 00:16:39;;;;;;;27.97;26.50;;;17.90;65.60;;;;;;4965547;28;20562;-70
2022/07/17 00:19:06;;;;;;;28.40;26.80;;;17.90;65.60;;;;;;4971054;28;21021;-69
2022/07/17 00:21:34;;;;;;;28.10;26.50;;;17.80;66.00;;;;;;4969454;28;20482;-69
2022/07/17 00:24:01;;;;;;;28.77;27.13;;;17.70;66.40;;;;;;4969129;28;20549;-70
2022/07/17 00:26:28;;;;;;;29.53;27.70;;;17.60;66.90;;;;;;4968100;28;20467;-70
2022/07/17 00:28:55;;;;;;;30.23;28.33;;;17.50;67.20;;;;;;4970634;28;20487;-69
2022/07/17 00:31:23;;;;;;;29.43;27.63;;;17.50;67.40;;;;;;4968817;28;20906;-68
2022/07/17 00:33:50;;;;;;;29.73;27.80;;;17.40;67.70;;;;;;4966856;28;20542;-70
2022/07/17 00:36:17;;;;;;;28.60;26.90;;;17.40;67.40;;;;;;4968248;28;20483;-69
2022/07/17 00:38:44;;;;;;;29.10;27.40;;;17.40;67.70;;;;;;4970394;28;21016;-68
2022/07/17 00:41:14;;;;;;;28.20;26.70;;;17.50;67.40;;;;;;4969689;28;20473;-68
2022/07/17 00:43:41;;;;;;;27.90;26.40;;;17.50;67.20;;;;;;4968369;28;20545;-68
2022/07/17 00:46:08;;;;;;;28.83;27.13;;;17.50;67.20;;;;;;4968648;28;20554;-69
2022/07/17 00:48:36;;;;;;;28.30;26.70;;;17.40;67.60;;;;;;4970753;28;20559;-67
2022/07/17 00:51:03;;;;;;;28.40;26.50;;;17.30;67.70;;;;;;4969518;28;21077;-66
2022/07/17 00:53:33;;;;;;;27.50;25.80;;;17.20;68.10;;;;;;4969336;28;20569;-67
2022/07/17 00:56:03;;;;;;;28.10;26.50;;;17.10;68.60;;;;;;4970521;28;20475;-66
2022/07/17 00:58:30;;;;;;;28.47;26.83;;;17.00;68.80;;;;;;4967900;28;20487;-68
2022/07/17 01:00:58;;;;;;;28.20;26.60;;;17.00;68.90;;;;;;4969695;28;21010;-66
2022/07/17 01:03:26;;;;;;;28.57;27.03;;;17.00;68.80;;;;;;4968552;28;20462;-67
2022/07/17 01:05:54;;;;;;;28.77;26.97;;;16.90;69.00;;;;;;4968016;28;20451;-67
2022/07/17 01:08:21;;;;;;;28.03;26.53;;;16.90;69.20;;;;;;4968837;28;20570;-67
2022/07/17 01:10:48;;;;;;;28.43;26.80;;;16.90;69.20;;;;;;4967971;28;20471;-67
2022/07/17 01:13:16;;;;;;;29.70;27.87;;;17.00;69.00;;;;;;4968672;28;20462;-67
2022/07/17 01:15:43;;;;;;;28.70;27.00;;;17.00;69.00;;;;;;4965994;28;20491;-68
2022/07/17 01:18:13;;;;;;;30.23;28.13;;;16.90;69.40;;;;;;4970023;28;20558;-68
2022/07/17 01:20:42;;;;;;;30.40;28.70;;;16.90;69.40;;;;;;4967498;28;20482;-68
2022/07/17 01:23:11;;;;;;;28.90;27.30;;;16.80;69.90;;;;;;4966330;28;20538;-69
2022/07/17 01:25:38;;;;;;;27.87;26.17;;;16.70;70.00;;;;;;4968660;28;20546;-68
2022/07/17 01:28:05;;;;;;;28.00;26.40;;;16.70;70.00;;;;;;4970272;28;20561;-68
2022/07/17 01:30:33;;;;;;;27.93;26.43;;;16.70;69.80;;;;;;4966728;28;20459;-69
2022/07/17 01:33:00;;;;;;;28.50;26.80;;;16.70;70.00;;;;;;4969929;28;20806;-67
2022/07/17 01:35:27;;;;;;;28.10;26.50;;;16.70;70.10;;;;;;4967674;28;20554;-67
2022/07/17 01:37:54;;;;;;;27.33;25.83;;;16.60;70.20;;;;;;4969989;28;20534;-68
2022/07/17 01:40:22;;;;;;;27.30;25.70;;;16.60;70.50;;;;;;4968290;28;20466;-67
2022/07/17 01:42:50;;;;;;;27.70;26.10;;;16.60;70.30;;;;;;4968114;28;20561;-67
2022/07/17 01:45:19;;;;;;;27.53;26.03;;;16.50;70.60;;;;;;4968809;28;20902;-67
2022/07/17 01:47:47;;;;;;;28.27;26.30;;;16.50;70.80;;;;;;4967794;28;20542;-67
2022/07/17 01:50:15;;;;;;;29.33;27.73;;;16.40;71.00;;;;;;4969402;28;20461;-67
2022/07/17 01:52:43;;;;;;;27.60;26.00;;;16.50;70.80;;;;;;4968396;28;20489;-67
2022/07/17 01:55:13;;;;;;;28.23;26.63;;;16.50;70.90;;;;;;4967363;28;20561;-67
2022/07/17 01:57:42;;;;;;;27.50;26.00;;;16.40;71.00;;;;;;4966390;28;20683;-67
2022/07/17 02:00:12;;;;;;;28.50;26.77;;;16.50;70.90;;;;;;4967889;28;20885;-67
2022/07/17 02:02:39;;;;;;;27.50;26.00;;;16.50;70.70;;;;;;4964500;28;21004;-67
2022/07/17 02:05:06;;;;;;;28.47;26.83;;;16.40;71.00;;;;;;4962906;28;20546;-67
2022/07/17 02:07:36;;;;;;;28.07;26.37;;;16.30;71.50;;;;;;4966057;28;20462;-67
2022/07/17 02:10:04;;;;;;;27.50;26.00;;;16.30;71.70;;;;;;4969691;28;20494;-67
2022/07/17 02:12:31;;;;;;;27.93;26.33;;;16.30;71.50;;;;;;4968238;28;20635;-67
2022/07/17 02:14:59;;;;;;;28.03;26.53;;;16.40;71.20;;;;;;4966503;28;20554;-67
2022/07/17 02:17:26;;;;;;;27.90;26.30;;;16.30;71.50;;;;;;4964191;28;20569;-67
2022/07/17 02:19:53;;;;;;;27.83;26.33;;;16.30;71.70;;;;;;4969576;28;20483;-67
2022/07/17 02:22:20;;;;;;;28.23;26.73;;;16.20;72.00;;;;;;4969392;28;20651;-67
2022/07/17 02:24:46;;;;;;;28.07;26.47;;;16.20;72.20;;;;;;4967772;28;21205;-67
2022/07/17 02:27:13;;;;;;;30.20;28.10;;;16.20;72.20;;;;;;4969233;28;20601;-67
2022/07/17 02:29:40;;;;;;;27.13;25.63;;;16.20;72.20;;;;;;4968647;28;21810;-67
2022/07/17 02:32:09;;;;;;;28.90;26.80;;;16.10;72.20;;;;;;4968885;28;20463;-67
2022/07/17 02:34:35;;;;;;;29.00;27.40;;;16.10;72.50;;;;;;4967683;28;20459;-66
2022/07/17 02:37:02;;;;;;;33.10;31.00;;;16.10;72.60;;;;;;4972619;28;20566;-67
2022/07/17 02:39:29;;;;;;;28.73;27.03;;;16.00;72.60;;;;;;4972028;28;20566;-67
2022/07/17 02:41:56;;;;;;;27.73;26.23;;;16.10;72.10;;;;;;4967098;28;20550;-67
2022/07/17 02:44:23;;;;;;;29.03;27.30;;;16.20;72.00;;;;;;4970032;28;20558;-67
2022/07/17 02:46:50;;;;;;;27.73;26.23;;;16.00;72.40;;;;;;4972530;28;20553;-67
2022/07/17 02:49:18;;;;;;;27.27;25.63;;;16.00;72.80;;;;;;4972225;28;20489;-67
2022/07/17 02:51:45;;;;;;;29.47;27.50;;;16.00;72.60;;;;;;4966638;28;20829;-67
2022/07/17 02:54:12;;;;;;;31.37;29.67;;;15.90;72.90;;;;;;4967840;28;20825;-67
2022/07/17 02:56:39;;;;;;;31.00;29.30;;;15.80;73.40;;;;;;4965117;28;20491;-67
2022/07/17 02:59:06;;;;;;;30.87;29.10;;;15.70;73.50;;;;;;4970537;28;20845;-67
2022/07/17 03:01:33;;;;;;;28.10;26.50;;;15.70;73.70;;;;;;4972160;28;20479;-67
2022/07/17 03:03:59;;;;;;;28.40;26.70;;;15.70;73.60;;;;;;4969982;28;20545;-67
2022/07/17 03:06:28;;;;;;;28.43;26.83;;;15.70;73.60;;;;;;4971443;28;20577;-67
2022/07/17 03:08:55;;;;;;;29.37;27.77;;;15.60;73.70;;;;;;4972361;28;20571;-67
2022/07/17 03:11:22;;;;;;;31.53;29.60;;;15.60;73.90;;;;;;4969647;28;20832;-67
2022/07/17 03:13:49;;;;;;;28.57;26.87;;;15.50;74.10;;;;;;4971225;28;20585;-67
2022/07/17 03:16:16;;;;;;;29.40;27.60;;;15.60;73.90;;;;;;4967365;28;20550;-67
2022/07/17 03:18:43;;;;;;;28.10;26.53;;;15.60;73.70;;;;;;4972992;28;20565;-67
2022/07/17 03:21:10;;;;;;;28.63;27.03;;;15.60;73.80;;;;;;4971550;28;20455;-67
2022/07/17 03:23:38;;;;;;;28.00;26.50;;;15.60;73.90;;;;;;4970700;28;20563;-67
2022/07/17 03:26:05;;;;;;;29.00;27.30;;;15.40;74.30;;;;;;4971478;28;20542;-67
2022/07/17 03:28:32;;;;;;;29.10;27.30;;;15.40;74.40;;;;;;4970771;28;20567;-67
2022/07/17 03:30:59;;;;;;;28.90;27.20;;;15.40;74.70;;;;;;4969460;28;20459;-67
2022/07/17 03:33:26;;;;;;;28.57;26.97;;;15.30;75.00;;;;;;4969362;28;20551;-67
2022/07/17 03:35:53;;;;;;;27.77;26.13;;;15.30;75.10;;;;;;4971537;28;20547;-67
2022/07/17 03:38:20;;;;;;;29.40;27.70;;;15.30;75.10;;;;;;4971308;28;20527;-68
2022/07/17 03:40:48;;;;;;;29.40;27.60;;;15.20;75.30;;;;;;4968849;28;20545;-67
2022/07/17 03:43:15;;;;;;;28.87;27.17;;;15.20;75.40;;;;;;4970642;28;20467;-67
2022/07/17 03:45:43;;;;;;;29.23;27.63;;;15.30;75.30;;;;;;4972054;28;20470;-68
2022/07/17 03:48:10;;;;;;;29.53;27.80;;;15.20;75.30;;;;;;4970432;28;20550;-70
2022/07/17 03:50:37;;;;;;;28.90;27.30;;;15.10;75.80;;;;;;4966716;28;20467;-69
2022/07/17 03:53:04;;;;;;;28.23;26.73;;;15.10;75.90;;;;;;4970979;28;20579;-70
2022/07/17 03:55:31;;;;;;;28.80;27.10;;;15.10;76.00;;;;;;4970823;28;21015;-68
2022/07/17 03:57:59;;;;;;;28.30;26.80;;;15.10;75.70;;;;;;4971212;28;20475;-69
2022/07/17 04:00:26;;;;;;;28.13;26.63;;;15.10;75.70;;;;;;4969168;28;20469;-68
2022/07/17 04:02:53;;;;;;;29.00;27.40;;;15.00;75.90;;;;;;4971187;28;21027;-69
2022/07/17 04:05:20;;;;;;;27.90;26.23;;;15.10;75.80;;;;;;4970352;28;20577;-68
2022/07/17 04:07:47;;;;;;;28.97;27.10;;;15.20;75.60;;;;;;4971147;28;20551;-69
2022/07/17 04:10:16;;;;;;;28.40;26.80;;;15.30;75.30;;;;;;4968154;28;20830;-69
2022/07/17 04:12:43;;;;;;;27.60;26.00;;;15.50;75.10;;;;;;4970898;28;20563;-68
2022/07/17 04:15:12;;;;;;;29.43;27.53;;;15.60;74.60;;;;;;4970730;28;20541;-68
2022/07/17 04:17:39;;;;;;;29.13;27.13;;;15.70;73.90;;;;;;4967688;28;20479;-68
2022/07/17 04:20:07;;;;;;;28.50;26.80;;;15.90;73.50;;;;;;4968782;28;20467;-69
2022/07/17 04:22:34;;;;;;;28.10;26.50;;;16.00;72.80;;;;;;4970047;28;20992;-69
2022/07/17 04:25:00;;;;;;;27.67;26.07;;;16.10;72.50;;;;;;4968932;28;20542;-69
2022/07/17 04:27:27;;;;;;;28.27;26.77;;;16.10;72.10;;;;;;4970519;28;20463;-69
2022/07/17 04:29:54;;;;;;;28.60;27.00;;;15.90;72.60;;;;;;4969437;28;20577;-68
2022/07/17 04:32:23;;;;;;;30.53;28.73;;;15.90;72.70;;;;;;4969894;28;20538;-68
2022/07/17 04:34:49;;;;;;;28.77;27.07;;;15.80;73.00;;;;;;4970173;28;20542;-68
2022/07/17 04:37:16;;;;;;;30.00;28.30;;;15.80;72.90;;;;;;4970983;28;21068;-68
2022/07/17 04:39:43;;;;;;;29.00;27.40;;;15.90;72.90;;;;;;4966683;28;20879;-69
2022/07/17 04:42:10;;;;;;;30.07;28.27;;;15.90;72.90;;;;;;4968846;28;20479;-69
2022/07/17 04:44:37;;;;;;;28.90;27.10;;;16.10;72.70;;;;;;4967996;28;20562;-69
2022/07/17 04:47:04;;;;;;;28.07;26.47;;;16.30;71.90;;;;;;4971073;28;20490;-68
2022/07/17 04:49:32;;;;;;;28.97;27.10;;;16.30;71.80;;;;;;4969904;28;20582;-68
2022/07/17 04:51:59;;;;;;;29.17;27.27;;;16.30;71.90;;;;;;4969076;28;20582;-69
2022/07/17 04:54:26;;;;;;;28.23;26.63;;;16.40;71.80;;;;;;4966755;28;20550;-68
2022/07/17 04:56:53;;;;;;;28.70;27.10;;;16.40;72.10;;;;;;4971801;28;20482;-68
2022/07/17 04:59:20;;;;;;;27.93;26.30;;;16.50;71.60;;;;;;4968826;28;20494;-68
2022/07/17 05:01:47;;;;;;;29.33;27.10;;;16.60;71.10;;;;;;4967968;28;20566;-70
2022/07/17 05:04:13;;;;;;;28.00;26.50;;;16.50;70.90;;;;;;4967309;28;20546;-68
2022/07/17 05:06:42;;;;;;;28.03;26.43;;;16.50;71.10;;;;;;4959908;28;20545;-69
2022/07/17 05:09:09;;;;;;;28.00;26.40;;;16.60;71.60;;;;;;4967885;28;20566;-69
2022/07/17 05:11:36;;;;;;;28.60;26.90;;;16.70;71.50;;;;;;4969761;28;20551;-69
2022/07/17 05:14:03;;;;;;;29.13;27.33;;;16.80;70.90;;;;;;4967216;28;21112;-68
2022/07/17 05:16:30;;;;;;;29.87;28.17;;;16.90;70.70;;;;;;4965787;28;20451;-68
2022/07/17 05:18:57;;;;;;;29.90;28.10;;;16.90;70.90;;;;;;4969226;28;20493;-71
2022/07/17 05:21:24;;;;;;;28.33;26.60;;;17.10;70.20;;;;;;4967842;28;20466;-69
2022/07/17 05:23:52;;;;;;;28.60;26.90;;;17.10;70.10;;;;;;4969805;28;20475;-68
2022/07/17 05:26:19;;;;;;;28.37;26.87;;;17.30;69.80;;;;;;4967363;28;21044;-69
2022/07/17 05:28:46;;;;;;;28.47;26.77;;;17.30;69.60;;;;;;4967224;28;20503;-68
2022/07/17 05:31:13;;;;;;;29.23;27.40;;;17.40;69.70;;;;;;4968893;28;20542;-68
2022/07/17 05:33:40;;;;;;;29.40;27.80;;;17.50;69.40;;;;;;4965911;28;20877;-68
2022/07/17 05:36:08;;;;;;;28.67;26.67;;;17.60;69.20;;;;;;4970424;28;20486;-69
2022/07/17 05:38:35;;;;;;;29.10;27.40;;;17.70;68.60;;;;;;4969565;28;20483;-69
2022/07/17 05:41:03;;;;;;;29.47;27.77;;;17.80;68.70;;;;;;4968786;28;20561;-68
2022/07/17 05:43:30;;;;;;;29.10;27.30;;;17.90;68.30;;;;;;4967904;28;20493;-71
2022/07/17 05:45:58;;;;;;;30.23;28.40;;;17.90;68.10;;;;;;4970409;28;20877;-68
2022/07/17 05:48:26;;;;;;;29.13;27.43;;;18.10;68.00;;;;;;4967305;28;21424;-69
2022/07/17 05:50:54;;;;;;;31.43;29.43;;;18.10;67.80;;;;;;4969257;28;20511;-67
2022/07/17 05:53:21;;;;;;;31.67;29.70;;;18.30;67.10;;;;;;4967649;28;20578;-67
2022/07/17 05:55:48;;;;;;;33.60;31.60;;;18.40;66.80;;;;;;4964251;28;20466;-67
2022/07/17 05:58:16;;;;;;;30.63;28.50;;;18.50;66.50;;;;;;4968714;28;20518;-67
2022/07/17 06:00:43;;;;;;;29.30;27.60;;;18.70;66.00;;;;;;4969280;28;20471;-67
2022/07/17 06:03:10;;;;;;;30.60;28.80;;;18.70;65.70;;;;;;4959512;28;20467;-67
2022/07/17 06:05:37;;;;;;;30.27;28.37;;;18.80;65.40;;;;;;4967192;28;20566;-67
2022/07/17 06:08:05;;;;;;;30.03;28.33;;;18.90;65.40;;;;;;4967972;28;20486;-67
2022/07/17 06:10:32;;;;;;;31.70;29.70;;;19.00;65.10;;;;;;4971145;28;20576;-67
2022/07/17 06:12:59;;;;;;;29.37;27.53;;;19.20;65.00;;;;;;4973029;28;21016;-66
2022/07/17 06:15:27;;;;;;;31.30;29.43;;;19.20;64.80;;;;;;4970009;28;20496;-67
2022/07/17 06:17:54;;;;;;;29.13;27.53;;;19.30;63.90;;;;;;4969144;28;20484;-68
2022/07/17 06:20:21;;;;;;;29.43;27.43;;;19.40;63.50;;;;;;4968449;28;20467;-68
2022/07/17 06:22:48;;;;;;;29.57;27.67;;;19.40;63.30;;;;;;4972946;28;20464;-70
2022/07/17 06:25:15;;;;;;;31.13;29.00;;;19.50;63.10;;;;;;4972584;28;21014;-70
2022/07/17 06:27:43;;;;;;;30.50;28.50;;;19.70;62.60;;;;;;4970190;28;20493;-70
2022/07/17 06:30:11;;;;;;;30.00;28.20;;;19.70;62.40;;;;;;4970931;28;20559;-70
2022/07/17 06:32:39;;;;;;;30.17;28.27;;;19.70;62.60;;;;;;4970935;28;20559;-69
2022/07/17 06:35:08;;;;;;;31.20;28.83;;;19.80;62.50;;;;;;4968320;28;20560;-71
2022/07/17 06:37:35;;;;;;;29.83;27.93;;;20.00;62.00;;;;;;4968939;28;20481;-70
2022/07/17 06:40:02;;;;;;;30.57;28.67;;;20.00;61.90;;;;;;4969011;28;21084;-71
2022/07/17 06:42:29;;;;;;;30.07;27.87;;;20.00;61.80;;;;;;4970114;28;20556;-71
2022/07/17 06:44:56;;;;;;;29.13;27.43;;;20.10;61.90;;;;;;4969826;28;20560;-68
2022/07/17 06:47:23;;;;;;;29.57;27.80;;;20.20;62.10;;;;;;4971149;28;20605;-66
2022/07/17 06:49:51;;;;;;;31.60;29.60;;;20.20;61.50;;;;;;4962497;28;20557;-70
2022/07/17 06:52:18;;;;;;;30.70;28.80;;;20.30;61.00;;;;;;4971492;28;20548;-69
2022/07/17 06:54:45;;;;;;;29.30;27.60;;;20.40;61.10;;;;;;4970861;28;20494;-70
2022/07/17 06:57:12;;;;;;;29.87;28.10;;;20.40;61.00;;;;;;4972906;28;20840;-71
2022/07/17 06:59:40;;;;;;;31.30;29.40;;;20.50;60.90;;;;;;4970497;28;20920;-76
2022/07/17 07:02:07;;;;;;;29.30;27.60;;;20.60;61.00;;;;;;4972506;28;20849;-76
2022/07/17 07:04:34;;;;;;;31.70;29.50;;;20.70;59.80;;;;;;4968743;28;20502;-74
2022/07/17 07:07:02;;;;;;;31.37;29.47;;;20.80;60.10;;;;;;4969824;28;20582;-75
2022/07/17 07:09:29;;;;;;;30.23;28.43;;;20.90;59.70;;;;;;4967309;28;20490;-74
2022/07/17 07:11:56;;;;;;;30.20;28.33;;;20.90;59.60;;;;;;4971791;28;21041;-73
2022/07/17 07:14:23;;;;;;;30.13;28.23;;;21.00;59.80;;;;;;4973849;28;20467;-73
2022/07/17 07:16:51;;;;;;;29.83;27.80;;;21.10;59.40;;;;;;4965626;28;20520;-71
2022/07/17 07:19:17;;;;;;;29.80;27.90;;;21.20;58.90;;;;;;4969435;28;20494;-72
2022/07/17 07:21:44;;;;;;;31.93;30.13;;;21.10;59.20;;;;;;4966324;28;20502;-72
2022/07/17 07:24:13;;;;;;;30.30;28.50;;;21.20;58.60;;;;;;4967713;28;20551;-71
2022/07/17 07:26:40;;;;;;;33.07;31.07;;;21.10;58.70;;;;;;4963313;28;20459;-74
2022/07/17 07:29:07;;;;;;;30.83;28.90;;;21.10;58.70;;;;;;4963110;28;20543;-73
2022/07/17 07:31:34;;;;;;;31.07;28.63;;;21.20;58.70;;;;;;4972813;28;20554;-72
2022/07/17 07:34:00;;;;;;;28.70;27.00;;;21.20;58.60;;;;;;4964535;28;20460;-71
2022/07/17 07:36:27;;;;;;;29.40;27.80;;;21.20;58.20;;;;;;4969775;28;20551;-71
2022/07/17 07:38:54;;;;;;;29.50;27.80;;;21.30;57.90;;;;;;4966604;28;20488;-71
2022/07/17 07:41:23;;;;;;;29.73;27.93;;;21.30;57.90;;;;;;4967213;28;20547;-71
2022/07/17 07:43:49;;;;;;;28.33;26.73;;;21.50;57.40;;;;;;4969668;28;20463;-71
2022/07/17 07:46:16;;;;;;;29.00;27.30;;;21.50;57.20;;;;;;4970212;28;20548;-72
2022/07/17 07:48:43;;;;;;;30.40;28.57;;;21.70;56.60;;;;;;4969792;28;20893;-72
2022/07/17 07:51:11;;;;;;;28.10;26.13;;;21.70;56.30;;;;;;4969351;28;20542;-72
2022/07/17 07:53:38;;;;;;;28.67;26.77;;;21.80;56.30;;;;;;4970290;28;20881;-69
2022/07/17 07:56:05;;;;;;;29.70;27.80;;;21.90;56.00;;;;;;4967846;28;20558;-72
2022/07/17 07:58:33;;;;;;;29.00;27.00;;;22.10;55.20;;;;;;4969205;28;20913;-72
2022/07/17 08:01:00;;;;;;;30.43;28.73;;;22.10;54.90;;;;;;4967000;28;20470;-72
2022/07/17 08:03:27;;;;;;;28.60;27.00;;;22.10;54.70;;;;;;4976771;28;20539;-72
2022/07/17 08:05:54;;;;;;;28.27;26.53;;;22.00;54.50;;;;;;4970654;28;20495;-71
2022/07/17 08:08:21;;;;;;;27.70;26.00;;;22.10;54.70;;;;;;4971489;28;21017;-71
2022/07/17 08:10:48;;;;;;;27.77;26.10;;;22.10;55.00;;;;;;4968141;28;20555;-71
2022/07/17 08:13:15;;;;;;;27.20;25.70;;;22.10;54.90;;;;;;4967313;28;20465;-71
2022/07/17 08:15:44;;;;;;;29.20;27.50;;;22.20;54.70;;;;;;4963113;28;20546;-71
2022/07/17 08:18:11;;;;;;;27.63;25.87;;;22.30;53.80;;;;;;4967029;28;20484;-71
2022/07/17 08:20:38;;;;;;;28.10;26.40;;;22.30;53.60;;;;;;4962325;28;20462;-71
2022/07/17 08:23:05;;;;;;;30.43;28.63;;;22.40;54.00;;;;;;4963893;28;20498;-71
2022/07/17 08:25:33;;;;;;;27.47;25.97;;;22.50;53.50;;;;;;4969711;28;20580;-71
2022/07/17 08:28:00;;;;;;;27.40;25.60;;;22.60;52.80;;;;;;4968278;28;20512;-71
2022/07/17 08:30:27;;;;;;;26.27;24.80;;;22.80;52.60;;;;;;4965300;28;20467;-71
2022/07/17 08:32:55;;;;;;;26.60;25.00;;;22.80;52.30;;;;;;4970013;28;20462;-71
2022/07/17 08:35:22;;;;;;;29.33;27.73;;;22.70;52.00;;;;;;4958750;28;20456;-71
2022/07/17 08:37:51;;;;;;;27.90;26.30;;;22.80;52.20;;;;;;4966837;28;20546;-71
2022/07/17 08:40:20;;;;;;;28.67;26.70;;;22.90;51.90;;;;;;4971457;28;20482;-71
2022/07/17 08:42:47;;;;;;;26.63;25.13;;;23.00;51.70;;;;;;4966158;28;21204;-71
2022/07/17 08:45:14;;;;;;;27.20;25.70;;;23.00;51.60;;;;;;4966178;28;20576;-70
2022/07/17 08:47:42;;;;;;;26.67;25.17;;;23.30;51.20;;;;;;4967722;28;20550;-71
2022/07/17 08:50:12;;;;;;;27.00;25.50;;;23.30;50.90;;;;;;4965275;28;20465;-71
2022/07/17 08:52:41;;;;;;;26.70;25.20;;;23.30;50.90;;;;;;4969970;28;20482;-71
2022/07/17 08:55:12;;;;;;;29.13;27.47;;;23.30;50.90;;;;;;4963338;28;21049;-71
2022/07/17 08:57:40;;;;;;;26.97;25.47;;;23.40;50.50;;;;;;4966119;28;20467;-71
2022/07/17 09:00:10;;;;;;;29.07;27.37;;;23.50;50.20;;;;;;4961662;28;20514;-71
2022/07/17 09:02:37;;;;;;;29.37;27.70;;;23.50;50.40;;;;;;4959541;28;20471;-71
2022/07/17 09:05:05;;;;;;;29.07;27.37;;;23.60;50.20;;;;;;4963845;28;20538;-71
2022/07/17 09:07:33;;;;;;;27.03;25.50;;;23.50;50.20;;;;;;4959949;28;20463;-71
2022/07/17 09:10:00;;;;;;;27.70;26.10;;;23.70;49.90;;;;;;4967125;28;20795;-71
2022/07/17 09:12:28;;;;;;;28.10;26.47;;;23.80;49.20;;;;;;4963311;28;20535;-71
2022/07/17 09:14:55;;;;;;;29.13;27.03;;;23.90;49.20;;;;;;4962694;28;20486;-71
2022/07/17 09:17:22;;;;;;;28.93;27.23;;;23.90;48.90;;;;;;4965445;28;20514;-71
2022/07/17 09:19:49;;;;;;;30.87;29.07;;;23.90;49.10;;;;;;4960374;28;20487;-71
2022/07/17 09:22:18;;;;;;;27.70;26.10;;;24.10;48.60;;;;;;4967002;28;20550;-71
2022/07/17 09:24:48;;;;;;;29.03;27.43;;;24.20;48.10;;;;;;4967941;28;20546;-72
2022/07/17 09:27:28;;;;;;;26.90;25.50;;;24.20;47.60;;;;;;4962244;28;20554;-72
2022/07/17 09:29:57;;;;;;;28.27;26.67;;;24.20;47.90;;;;;;4968398;28;21051;-72
2022/07/17 09:32:27;;;;;;;29.40;27.70;;;24.30;46.90;;;;;;4963373;28;20465;-71
2022/07/17 09:34:56;;;;;;;27.83;26.23;;;24.30;47.20;;;;;;4965467;28;20516;-72
2022/07/17 09:37:24;;;;;;;30.20;28.67;;;24.60;46.70;;;;;;4960901;28;20452;-71
2022/07/17 09:39:54;;;;;;;28.20;26.60;;;24.60;46.00;;;;;;4962894;28;20485;-72
2022/07/17 09:42:26;;;;;;;27.33;25.93;;;24.70;46.20;;;;;;4965226;28;20470;-72
2022/07/17 09:45:02;;;;;;;27.50;25.90;;;24.90;45.80;;;;;;4962932;28;20545;-72
2022/07/17 09:47:32;;;;;;;27.57;25.93;;;25.00;45.70;;;;;;4969975;28;20462;-71
2022/07/17 09:50:00;;;;;;;26.40;24.90;;;24.80;44.30;;;;;;4966415;28;20470;-71
2022/07/17 09:52:30;;;;;;;29.00;27.40;;;24.60;45.00;;;;;;4962335;28;20546;-71
2022/07/17 09:55:00;;;;;;;28.50;26.90;;;24.70;45.00;;;;;;4964687;28;20483;-71
2022/07/17 09:57:29;;;;;;;29.00;27.43;;;24.70;45.40;;;;;;4966088;28;20498;-72
2022/07/17 10:00:00;;;;;;;27.10;25.50;;;24.90;45.30;;;;;;4965439;28;20489;-71
2022/07/17 10:02:27;;;;;;;30.37;28.77;;;25.00;44.10;;;;;;4965370;28;20490;-72
2022/07/17 10:04:54;;;;;;;27.43;25.73;;;25.10;43.90;;;;;;4964043;28;20467;-72
2022/07/17 10:07:22;;;;;;;27.10;25.57;;;25.30;42.30;;;;;;4958838;28;20467;-72
2022/07/17 10:09:49;;;;;;;29.10;27.40;;;25.00;42.50;;;;;;4964686;28;20479;-72
2022/07/17 10:12:18;;;;;;;27.43;25.83;;;25.00;42.30;;;;;;4967702;28;20562;-72
2022/07/17 10:14:49;;;;;;;27.03;25.57;;;25.00;41.70;;;;;;4967397;28;20458;-72
2022/07/17 10:17:21;;;;;;;28.90;27.30;;;25.00;41.50;;;;;;4967144;28;20456;-72
2022/07/17 10:19:50;;;;;;;26.70;25.20;;;24.90;41.50;;;;;;4966872;28;20925;-72
2022/07/17 10:22:17;;;;;;;25.87;24.47;;;25.10;41.30;;;;;;4961646;28;20467;-73
2022/07/17 10:24:49;;;;;;;26.83;25.27;;;25.20;41.00;;;;;;4965339;28;20511;-73
2022/07/17 10:27:25;;;;;;;26.90;25.30;;;25.40;41.60;;;;;;4967554;28;20461;-72
2022/07/17 10:30:01;;;;;;;29.90;28.30;;;25.70;41.40;;;;;;4958935;28;20984;-72
2022/07/17 10:32:28;;;;;;;27.03;25.23;;;25.80;41.50;;;;;;4966120;28;21244;-73
2022/07/17 10:35:00;;;;;;;30.73;29.13;;;25.80;41.50;;;;;;4958300;28;20964;-73
2022/07/17 10:37:31;;;;;;;27.10;25.60;;;25.80;40.50;;;;;;4963357;28;20892;-74
2022/07/17 10:40:04;;;;;;;26.50;25.00;;;25.70;41.30;;;;;;4964918;28;20485;-74
2022/07/17 10:42:48;;;;;;;28.00;26.40;;;25.70;39.50;;;;;;4965139;28;20470;-73
2022/07/17 10:45:17;;;;;;;27.47;25.87;;;25.90;39.50;;;;;;4961626;28;20489;-73
2022/07/17 10:47:50;;;;;;;27.70;26.10;;;25.90;39.80;;;;;;4960671;28;20547;-72
2022/07/17 10:50:20;;;;;;;30.67;28.77;;;25.90;41.40;;;;;;4966931;28;20832;-72
2022/07/17 10:53:04;;;;;;;27.23;25.73;;;26.00;41.20;;;;;;4962623;28;20556;-73
2022/07/17 10:55:32;;;;;;;29.07;27.37;;;26.00;40.50;;;;;;4964343;28;20469;-72
2022/07/17 10:58:01;;;;;;;27.90;26.30;;;26.10;40.70;;;;;;4961578;28;20623;-71
2022/07/17 11:00:28;;;;;;;28.40;26.80;;;26.20;40.20;;;;;;4966199;28;21210;-75
2022/07/17 11:02:55;;;;;;;29.83;28.00;;;26.30;40.40;;;;;;4970506;28;20541;-71
2022/07/17 11:05:22;;;;;;;33.17;31.47;;;26.10;40.80;;;;;;4965101;28;20554;-70
2022/07/17 11:07:51;;;;;;;29.00;27.30;;;26.00;41.00;;;;;;4968493;28;20568;-68
2022/07/17 11:10:18;;;;;;;27.80;26.10;;;26.10;40.80;;;;;;4969578;28;20837;-68
2022/07/17 11:12:45;;;;;;;28.47;26.57;;;26.10;40.20;;;;;;4963256;28;20549;-68
2022/07/17 11:15:14;;;;;;;26.77;25.27;;;26.10;39.50;;;;;;4967996;28;20500;-71
2022/07/17 11:17:46;;;;;;;28.60;27.00;;;26.30;39.20;;;;;;4963133;28;20479;-69
2022/07/17 11:20:13;;;;;;;27.60;26.00;;;26.30;36.90;;;;;;4971374;28;20486;-68
2022/07/17 11:22:40;;;;;;;28.33;26.70;;;26.20;36.30;;;;;;4966338;28;20566;-69
2022/07/17 11:25:08;;;;;;;27.40;25.90;;;26.30;37.20;;;;;;4969755;28;20503;-70
2022/07/17 11:27:36;;;;;;;27.70;26.10;;;26.40;37.30;;;;;;4970257;28;20468;-70
2022/07/17 11:30:05;;;;;;;29.67;27.57;;;26.30;37.80;;;;;;4962874;28;20570;-70
2022/07/17 11:32:38;;;;;;;29.47;27.77;;;26.30;37.90;;;;;;4968967;28;20817;-70
2022/07/17 11:35:15;;;;;;;29.80;28.10;;;26.40;37.50;;;;;;4961653;28;20500;-71
2022/07/17 11:37:42;;;;;;;32.30;30.40;;;26.50;38.60;;;;;;4967073;28;21007;-70
2022/07/17 11:40:10;;;;;;;30.80;29.10;;;26.50;39.30;;;;;;4968241;28;20541;-70
2022/07/17 11:42:37;;;;;;;28.57;26.97;;;26.70;38.70;;;;;;4968393;28;20506;-71
2022/07/17 11:45:05;;;;;;;29.90;28.10;;;26.90;38.90;;;;;;4967029;28;20471;-70
2022/07/17 11:47:32;;;;;;;29.80;28.10;;;26.90;38.00;;;;;;4965443;28;20472;-70
2022/07/17 11:50:12;;;;;;;27.77;26.27;;;26.90;38.10;;;;;;4968267;28;20561;-70
2022/07/17 11:52:44;;;;;;;29.20;27.50;;;26.90;37.80;;;;;;4965778;28;20462;-70
2022/07/17 11:55:11;;;;;;;28.20;26.60;;;26.90;37.90;;;;;;4968557;28;20498;-70
2022/07/17 11:57:48;;;;;;;28.80;27.20;;;27.00;37.80;;;;;;4968624;28;20549;-68
2022/07/17 12:00:17;;;;;;;28.77;27.07;;;27.00;37.10;;;;;;4957610;28;20676;-68
2022/07/17 12:02:44;;;;;;;28.00;26.40;;;27.10;36.70;;;;;;4966782;28;20486;-69
2022/07/17 12:05:13;;;;;;;28.93;27.20;;;27.20;36.30;;;;;;4972277;28;20553;-69
2022/07/17 12:07:42;;;;;;;29.50;27.70;;;27.30;37.70;;;;;;4962816;28;20577;-69
2022/07/17 12:10:14;;;;;;;29.73;28.03;;;27.20;38.00;;;;;;4966576;28;20499;-70
2022/07/17 12:12:52;;;;;;;28.70;27.10;;;27.20;36.90;;;;;;4969994;28;20473;-70
2022/07/17 12:15:19;;;;;;;27.37;25.77;;;27.20;36.80;;;;;;4964733;28;20463;-69
2022/07/17 12:17:46;;;;;;;27.10;25.43;;;27.40;37.30;;;;;;4962847;28;20542;-69
2022/07/17 12:20:15;;;;;;;29.40;27.70;;;27.60;36.70;;;;;;4964719;28;20486;-71
2022/07/17 12:22:44;;;;;;;28.50;26.80;;;27.70;36.20;;;;;;4969252;28;20529;-70
2022/07/17 12:25:23;;;;;;;29.70;27.90;;;27.80;36.40;;;;;;4966234;28;20463;-71
2022/07/17 12:27:50;;;;;;;27.63;26.03;;;28.00;36.30;;;;;;4963188;28;20463;-69
2022/07/17 12:30:17;;;;;;;29.23;27.73;;;28.10;36.20;;;;;;4966466;28;20904;-71
2022/07/17 12:32:44;;;;;;;29.63;27.67;;;28.20;35.60;;;;;;4965371;28;20458;-72